createdAt,value
2022-08-16T00:01:15.426Z,4.23
2022-08-16T00:03:42.581Z,5.00
2022-08-16T00:06:10.070Z,4.95
2022-08-16T00:08:38.017Z,5.18
2022-08-16T00:11:15.903Z,4.43
2022-08-16T00:13:54.202Z,5.22
2022-08-16T00:17:06.371Z,6.47
2022-08-16T00:19:22.757Z,5.75
2022-08-16T00:21:53.144Z,6.10
2022-08-16T00:24:32.402Z,5.20
2022-08-16T00:27:02.196Z,5.65
2022-08-16T00:29:30.136Z,5.07
2022-08-16T00:32:05.287Z,4.55
2022-08-16T00:34:43.710Z,5.65
2022-08-16T00:37:17.381Z,6.22
2022-08-16T00:39:47.901Z,6.22
2022-08-16T00:42:30.796Z,6.22
2022-08-16T00:45:08.274Z,5.50
2022-08-16T00:47:39.470Z,5.57
2022-08-16T00:50:11.845Z,4.57
2022-08-16T00:52:50.134Z,5.65
2022-08-16T00:55:22.873Z,6.82
2022-08-16T00:58:00.145Z,5.22
2022-08-16T01:00:31.968Z,5.05
2022-08-16T01:03:04.353Z,5.63
2022-08-16T01:05:33.077Z,5.28
2022-08-16T01:08:02.462Z,4.32
2022-08-16T01:10:50.239Z,6.07
2022-08-16T01:13:23.341Z,5.07
2022-08-16T01:16:01.121Z,4.72
2022-08-16T01:18:40.720Z,6.38
2022-08-16T01:21:22.172Z,5.30
2022-08-16T01:24:51.985Z,6.30
2022-08-16T01:27:21.028Z,5.18
2022-08-16T01:30:01.319Z,4.75
2022-08-16T01:32:35.851Z,5.57
2022-08-16T01:35:08.512Z,5.35
2022-08-16T01:37:53.843Z,4.90
2022-08-16T01:42:55.459Z,5.53
2022-08-16T01:45:24.191Z,6.45
2022-08-16T01:48:19.986Z,5.43
2022-08-16T01:51:09.722Z,6.30
2022-08-16T01:56:29.557Z,5.22
2022-08-16T01:58:59.397Z,5.38
2022-08-16T02:01:29.139Z,5.30
2022-08-16T02:03:58.491Z,5.60
2022-08-16T02:06:34.263Z,5.53
2022-08-16T02:09:11.834Z,6.28
2022-08-16T02:11:48.537Z,6.20
2022-08-16T02:14:27.436Z,5.22
2022-08-16T02:16:58.744Z,5.57
2022-08-16T02:19:59.094Z,5.25
2022-08-16T02:25:10.298Z,5.75
2022-08-16T02:27:42.423Z,6.40
2022-08-16T02:30:36.879Z,5.53
2022-08-16T02:33:04.510Z,5.45
2022-08-16T02:35:34.051Z,7.03
2022-08-16T02:38:08.620Z,5.50
2022-08-16T02:40:37.453Z,5.78
2022-08-16T02:43:05.307Z,6.07
2022-08-16T02:45:32.970Z,6.22
2022-08-16T02:48:29.867Z,6.22
2022-08-16T02:50:54.853Z,5.72
2022-08-16T02:53:31.673Z,6.18
2022-08-16T02:55:59.215Z,6.33
2022-08-16T02:58:28.262Z,7.00
2022-08-16T03:00:57.460Z,8.50
2022-08-16T03:03:27.424Z,8.23
2022-08-16T03:06:42.022Z,8.40
2022-08-16T03:09:15.057Z,7.55
2022-08-16T03:11:47.769Z,9.82
2022-08-16T03:14:15.089Z,8.18
2022-08-16T03:16:59.964Z,9.23
2022-08-16T03:19:46.861Z,8.77
2022-08-16T03:22:28.474Z,8.48
2022-08-16T03:25:04.473Z,9.80
2022-08-16T03:27:39.031Z,9.07
2022-08-16T03:30:18.272Z,8.00
2022-08-16T03:32:51.366Z,8.90
2022-08-16T03:35:24.328Z,8.20
2022-08-16T03:38:32.865Z,7.97
2022-08-16T03:40:56.146Z,8.45
2022-08-16T03:43:51.632Z,9.90
2022-08-16T03:46:44.933Z,8.90
2022-08-16T03:49:04.769Z,9.48
2022-08-16T03:51:31.964Z,9.07
2022-08-16T03:54:05.367Z,8.48
2022-08-16T03:56:57.125Z,9.95
2022-08-16T03:59:29.622Z,10.23
2022-08-16T04:02:02.810Z,9.32
2022-08-16T04:04:33.401Z,10.90
2022-08-16T04:07:07.084Z,9.82
2022-08-16T04:09:37.948Z,10.93
2022-08-16T04:14:54.476Z,10.48
2022-08-16T04:17:22.123Z,9.35
2022-08-16T04:19:54.993Z,10.80
2022-08-16T04:22:27.564Z,10.23
2022-08-16T04:24:59.503Z,10.25
2022-08-16T04:27:32.397Z,10.07
2022-08-16T04:30:04.321Z,9.02
2022-08-16T04:32:41.747Z,10.05
2022-08-16T04:35:16.498Z,10.00
2022-08-16T04:37:46.109Z,8.95
2022-08-16T04:40:25.192Z,10.07
2022-08-16T04:42:56.055Z,10.07
2022-08-16T04:45:36.737Z,11.48
2022-08-16T04:48:28.168Z,11.23
2022-08-16T04:51:01.031Z,10.77
2022-08-16T04:53:41.218Z,11.25
2022-08-16T04:56:11.383Z,20.55
2022-08-16T04:58:45.857Z,10.50
2022-08-16T05:01:17.682Z,10.27
2022-08-16T05:04:00.336Z,12.15
2022-08-16T05:06:44.713Z,11.13
2022-08-16T05:09:16.405Z,11.38
2022-08-16T05:11:45.805Z,10.68
2022-08-16T05:14:20.181Z,9.90
2022-08-16T05:17:03.664Z,11.45
2022-08-16T05:19:35.985Z,11.57
2022-08-16T05:22:18.370Z,11.07
2022-08-16T05:24:54.903Z,10.10
2022-08-16T05:27:23.263Z,11.35
2022-08-16T05:29:59.404Z,11.65
2022-08-16T05:32:36.516Z,10.85
2022-08-16T05:35:14.998Z,9.73
2022-08-16T05:38:05.950Z,9.82
2022-08-16T05:40:59.966Z,10.70
2022-08-16T05:43:43.470Z,11.27
2022-08-16T05:46:29.056Z,11.20
2022-08-16T05:49:08.889Z,11.20
2022-08-16T05:51:41.540Z,11.18
2022-08-16T05:54:13.963Z,10.70
2022-08-16T05:56:43.256Z,11.35
2022-08-16T05:59:11.067Z,11.38
2022-08-16T06:01:39.743Z,11.90
2022-08-16T06:04:13.088Z,11.57
2022-08-16T06:06:57.471Z,11.35
2022-08-16T06:09:43.838Z,11.23
2022-08-16T06:12:27.500Z,9.23
2022-08-16T06:15:07.868Z,9.70
2022-08-16T06:17:43.935Z,10.30
2022-08-16T06:20:34.867Z,8.73
2022-08-16T06:23:17.057Z,8.57
2022-08-16T06:25:55.934Z,8.07
2022-08-16T06:28:34.865Z,7.80
2022-08-16T06:31:05.849Z,8.60
2022-08-16T06:33:41.800Z,8.57
2022-08-16T06:36:11.804Z,9.02
2022-08-16T06:38:55.316Z,10.07
2022-08-16T06:41:41.229Z,8.65
2022-08-16T06:44:20.797Z,9.67
2022-08-16T06:46:52.229Z,10.15
2022-08-16T06:49:21.042Z,9.43
2022-08-16T06:51:48.904Z,8.43
2022-08-16T06:54:21.723Z,9.13
2022-08-16T06:56:53.914Z,7.72
2022-08-16T06:59:25.684Z,8.85
2022-08-16T07:01:58.206Z,8.43
2022-08-16T07:04:33.284Z,7.75
2022-08-16T07:07:20.359Z,7.63
2022-08-16T07:09:47.895Z,9.15
2022-08-16T07:12:19.397Z,7.82
2022-08-16T07:14:49.467Z,7.88
2022-08-16T07:17:19.350Z,6.93
2022-08-16T07:20:04.078Z,6.35
2022-08-16T07:22:50.841Z,7.13
2022-08-16T07:25:24.681Z,6.93
2022-08-16T07:27:52.387Z,6.10
2022-08-16T07:30:45.313Z,6.45
2022-08-16T07:33:21.426Z,7.53
2022-08-16T07:36:08.661Z,6.50
2022-08-16T07:38:42.265Z,6.57
2022-08-16T07:41:10.942Z,6.97
2022-08-16T07:43:43.969Z,6.60
2022-08-16T07:46:38.402Z,6.10
2022-08-16T07:49:11.258Z,5.97
2022-08-16T07:51:39.934Z,5.18
2022-08-16T07:56:45.185Z,5.20
2022-08-16T07:59:12.393Z,5.18
2022-08-16T08:01:42.004Z,6.20
2022-08-16T08:04:13.157Z,5.28
2022-08-16T08:06:42.558Z,4.20
2022-08-16T08:09:17.301Z,4.63
2022-08-16T08:12:00.647Z,5.05
2022-08-16T08:14:34.105Z,6.28
2022-08-16T08:17:01.862Z,5.18
2022-08-16T08:19:35.604Z,5.10
2022-08-16T08:22:06.022Z,3.88
2022-08-16T08:24:53.949Z,3.85
2022-08-16T08:27:27.534Z,3.42
2022-08-16T08:30:48.825Z,3.28
2022-08-16T08:32:51.222Z,3.35
2022-08-16T08:35:28.358Z,3.10
2022-08-16T08:37:57.063Z,3.78
2022-08-16T08:40:29.428Z,3.75
2022-08-16T08:43:11.489Z,3.38
2022-08-16T08:45:53.200Z,3.13
2022-08-16T08:48:33.472Z,2.95
2022-08-16T08:51:08.985Z,2.83
2022-08-16T08:53:43.616Z,3.45
2022-08-16T08:56:23.588Z,2.65
2022-08-16T08:59:00.164Z,2.28
2022-08-16T09:04:23.442Z,3.20
2022-08-16T09:06:53.514Z,2.55
2022-08-16T09:09:22.948Z,3.72
2022-08-16T09:12:04.407Z,2.75
2022-08-16T09:14:49.483Z,3.23
2022-08-16T09:17:45.405Z,2.78
2022-08-16T09:20:07.954Z,3.17
2022-08-16T09:22:35.372Z,3.30
2022-08-16T09:25:10.953Z,2.53
2022-08-16T09:27:56.428Z,2.08
2022-08-16T09:30:35.929Z,2.33
2022-08-16T09:33:11.685Z,2.40
2022-08-16T09:35:39.807Z,2.55
2022-08-16T09:38:12.823Z,2.72
2022-08-16T09:40:58.968Z,3.15
2022-08-16T09:44:00.251Z,2.55
2022-08-16T09:46:45.785Z,2.45
2022-08-16T09:49:03.481Z,2.75
2022-08-16T09:51:37.276Z,2.25
2022-08-16T09:54:06.137Z,3.05
2022-08-16T09:56:39.428Z,3.63
2022-08-16T09:59:22.305Z,3.70
2022-08-16T10:01:51.043Z,3.72
2022-08-16T10:04:30.294Z,3.13
2022-08-16T10:09:45.193Z,3.30
2022-08-16T10:12:42.393Z,3.13
2022-08-16T10:15:15.692Z,3.70
2022-08-16T10:18:01.245Z,2.70
2022-08-16T10:20:32.482Z,2.42
2022-08-16T10:23:07.329Z,2.70
2022-08-16T10:27:19.943Z,2.70
2022-08-16T10:28:29.524Z,2.90
2022-08-16T10:30:59.597Z,2.70
2022-08-16T10:33:29.691Z,2.63
2022-08-16T10:36:04.401Z,3.38
2022-08-16T10:38:36.489Z,3.10
2022-08-16T10:41:06.975Z,2.75
2022-08-16T10:43:36.355Z,2.55
2022-08-16T10:46:33.860Z,2.58
2022-08-16T10:48:53.176Z,2.60
2022-08-16T10:51:20.425Z,2.25
2022-08-16T10:54:01.175Z,2.13
2022-08-16T10:56:52.117Z,2.47
2022-08-16T10:59:39.014Z,2.40
2022-08-16T11:05:09.049Z,2.20
2022-08-16T11:07:43.304Z,2.58
2022-08-16T11:10:20.995Z,2.00
2022-08-16T11:13:58.330Z,1.90
2022-08-16T11:15:56.688Z,1.98
2022-08-16T11:19:03.980Z,2.28
2022-08-16T11:21:28.490Z,2.38
2022-08-16T11:23:58.964Z,2.05
2022-08-16T11:26:28.126Z,2.03
2022-08-16T11:29:13.637Z,2.28
2022-08-16T11:31:42.481Z,2.42
2022-08-16T11:34:19.805Z,1.95
2022-08-16T11:36:59.341Z,2.22
2022-08-16T11:39:31.979Z,2.03
2022-08-16T11:42:02.484Z,1.90
2022-08-16T11:44:52.226Z,2.23
2022-08-16T11:47:16.861Z,1.92
2022-08-16T11:49:43.966Z,2.42
2022-08-16T11:52:11.258Z,2.10
2022-08-16T11:54:40.171Z,1.77
2022-08-16T11:57:09.443Z,2.00
2022-08-16T11:59:39.765Z,1.70
2022-08-16T12:02:30.940Z,2.17
2022-08-16T12:07:23.502Z,1.70
2022-08-16T12:09:53.206Z,1.70
2022-08-16T12:12:23.397Z,1.70
2022-08-16T12:14:59.260Z,2.60
2022-08-16T12:17:31.705Z,2.15
2022-08-16T12:20:00.951Z,2.25
2022-08-16T12:22:29.029Z,2.20
2022-08-16T12:24:56.450Z,2.23
2022-08-16T12:27:25.328Z,2.85
2022-08-16T12:29:53.916Z,2.00
2022-08-16T12:32:37.513Z,1.75
2022-08-16T12:35:12.308Z,2.10
2022-08-16T12:37:41.661Z,2.30
2022-08-16T12:40:21.344Z,2.33
2022-08-16T12:42:58.530Z,2.28
2022-08-16T12:45:29.935Z,2.15
2022-08-16T12:48:33.606Z,2.08
2022-08-16T12:51:20.019Z,2.10
2022-08-16T12:53:53.417Z,1.90
2022-08-16T12:56:25.328Z,2.10
2022-08-16T12:58:55.877Z,2.20
2022-08-16T13:01:27.419Z,2.67
2022-08-16T13:04:11.455Z,2.58
2022-08-16T13:06:44.191Z,2.60
2022-08-16T13:09:20.495Z,1.85
2022-08-16T13:12:00.510Z,1.88
2022-08-16T13:14:33.518Z,2.10
2022-08-16T13:17:06.436Z,2.35
2022-08-16T13:20:05.399Z,2.30
2022-08-16T13:22:22.935Z,3.00
2022-08-16T13:24:52.807Z,2.45
2022-08-16T13:27:20.720Z,2.78
2022-08-16T13:30:01.999Z,2.70
2022-08-16T13:32:40.684Z,2.90
2022-08-16T13:35:11.713Z,2.45
2022-08-16T13:37:39.529Z,2.03
2022-08-16T13:40:09.440Z,2.20
2022-08-16T13:42:48.124Z,2.22
2022-08-16T13:45:17.032Z,2.33
2022-08-16T13:47:48.035Z,2.08
2022-08-16T13:50:31.443Z,3.03
2022-08-16T13:53:07.726Z,3.10
2022-08-16T13:55:35.010Z,2.55
2022-08-16T13:58:36.979Z,2.90
2022-08-16T14:00:52.891Z,2.55
2022-08-16T14:03:21.639Z,2.78
2022-08-16T14:05:52.699Z,2.58
2022-08-16T14:10:54.229Z,2.30
2022-08-16T14:13:21.933Z,2.42
2022-08-16T14:15:49.703Z,2.40
2022-08-16T14:18:20.064Z,3.00
2022-08-16T14:20:48.531Z,2.72
2022-08-16T14:23:17.043Z,3.17
2022-08-16T14:25:54.268Z,3.50
2022-08-16T14:28:24.311Z,3.45
2022-08-16T14:30:54.038Z,3.60
2022-08-16T14:33:21.199Z,3.13
2022-08-16T14:35:50.443Z,3.72
2022-08-16T14:38:23.449Z,3.13
2022-08-16T14:40:55.146Z,2.78
2022-08-16T14:43:24.925Z,3.75
2022-08-16T14:45:54.695Z,3.53
2022-08-16T14:48:25.824Z,3.45
2022-08-16T14:50:54.726Z,3.60
2022-08-16T14:53:24.178Z,2.95
2022-08-16T14:55:51.967Z,3.97
2022-08-16T14:58:20.289Z,3.28
2022-08-16T15:01:02.365Z,2.83
2022-08-16T15:03:30.178Z,2.93
2022-08-16T15:06:00.781Z,2.92
2022-08-16T15:08:36.446Z,2.85
2022-08-16T15:11:05.648Z,3.00
2022-08-16T15:13:32.787Z,2.78
2022-08-16T15:16:02.728Z,3.00
2022-08-16T15:18:32.348Z,2.83
2022-08-16T15:21:04.663Z,2.72
2022-08-16T15:23:33.833Z,2.80
2022-08-16T15:26:03.887Z,2.75
2022-08-16T15:28:33.514Z,3.03
2022-08-16T15:31:03.758Z,2.83
2022-08-16T15:33:34.218Z,2.97
2022-08-16T15:36:02.410Z,2.55
2022-08-16T15:38:58.059Z,2.83
2022-08-16T15:41:32.623Z,2.53
2022-08-16T15:44:05.558Z,2.70
2022-08-16T15:46:56.679Z,2.63
2022-08-16T15:49:34.918Z,3.20
2022-08-16T15:52:10.503Z,3.65
2022-08-16T15:54:53.636Z,4.22
2022-08-16T15:57:24.873Z,3.95
2022-08-16T15:59:56.342Z,4.35
2022-08-16T16:02:39.000Z,4.07
2022-08-16T16:05:09.564Z,4.53
2022-08-16T16:07:55.614Z,3.42
2022-08-16T16:10:29.505Z,3.15
2022-08-16T16:13:00.232Z,2.90
2022-08-16T16:15:31.300Z,3.45
2022-08-16T16:17:58.974Z,3.05
2022-08-16T16:20:33.371Z,2.85
2022-08-16T16:23:10.646Z,3.05
2022-08-16T16:25:44.093Z,2.72
2022-08-16T16:28:46.105Z,3.20
2022-08-16T16:31:08.102Z,2.55
2022-08-16T16:33:39.863Z,3.60
2022-08-16T16:36:08.755Z,3.80
2022-08-16T16:38:35.910Z,3.47
2022-08-16T16:41:09.412Z,3.15
2022-08-16T16:43:40.453Z,3.35
2022-08-16T16:46:32.787Z,3.88
2022-08-16T16:48:56.991Z,3.05
2022-08-16T16:51:24.531Z,3.08
2022-08-16T16:53:56.965Z,4.55
2022-08-16T16:56:30.227Z,3.42
2022-08-16T16:59:04.593Z,4.00
2022-08-16T17:01:56.771Z,3.15
2022-08-16T17:04:32.028Z,3.08
2022-08-16T17:07:02.051Z,3.13
2022-08-16T17:09:29.659Z,2.75
2022-08-16T17:11:58.173Z,3.50
2022-08-16T17:14:32.169Z,3.10
2022-08-16T17:17:09.133Z,3.20
2022-08-16T17:19:41.262Z,3.13
2022-08-16T17:22:14.958Z,3.03
2022-08-16T17:24:50.825Z,3.33
2022-08-16T17:27:32.988Z,3.47
2022-08-16T17:30:15.823Z,2.70
2022-08-16T17:32:50.694Z,3.75
2022-08-16T17:35:34.267Z,3.00
2022-08-16T17:38:06.339Z,3.45
2022-08-16T17:40:47.801Z,2.67
2022-08-16T17:43:32.813Z,3.13
2022-08-16T17:46:00.721Z,3.60
2022-08-16T17:48:30.994Z,3.78
2022-08-16T17:50:59.459Z,2.55
2022-08-16T17:53:27.015Z,2.95
2022-08-16T17:55:54.768Z,2.95
2022-08-16T17:58:24.151Z,2.33
2022-08-16T18:00:55.771Z,2.50
2022-08-16T18:04:07.148Z,2.88
2022-08-16T18:06:18.540Z,2.53
2022-08-16T18:08:48.808Z,2.47
2022-08-16T18:11:25.778Z,2.83
2022-08-16T18:13:54.399Z,2.30
2022-08-16T18:16:21.888Z,2.03
2022-08-16T18:18:49.034Z,2.17
2022-08-16T18:21:34.975Z,1.85
2022-08-16T18:24:02.191Z,2.13
2022-08-16T18:26:29.951Z,2.88
2022-08-16T18:28:57.075Z,2.37
2022-08-16T18:31:25.108Z,2.30
2022-08-16T18:33:55.735Z,2.35
2022-08-16T18:36:24.591Z,2.13
2022-08-16T18:38:52.935Z,2.40
2022-08-16T18:41:23.070Z,2.50
2022-08-16T18:44:24.217Z,1.83
2022-08-16T18:46:42.466Z,3.03
2022-08-16T18:49:10.039Z,2.35
2022-08-16T18:51:42.447Z,1.98
2022-08-16T18:54:11.687Z,2.65
2022-08-16T18:56:55.313Z,2.28
2022-08-16T18:59:27.699Z,2.40
2022-08-16T19:02:00.166Z,2.42
2022-08-16T19:04:47.646Z,1.98
2022-08-16T19:07:30.670Z,2.10
2022-08-16T19:10:01.098Z,1.90
2022-08-16T19:12:38.477Z,2.45
2022-08-16T19:15:20.592Z,2.20
2022-08-16T19:17:48.149Z,2.58
2022-08-16T19:20:19.014Z,2.00
2022-08-16T19:23:05.222Z,2.30
2022-08-16T19:25:48.697Z,1.75
2022-08-16T19:28:51.159Z,2.20
2022-08-16T19:31:13.348Z,1.63
2022-08-16T19:33:53.646Z,2.50
2022-08-16T19:36:42.126Z,2.60
2022-08-16T19:39:15.213Z,2.28
2022-08-16T19:41:51.964Z,2.20
2022-08-16T19:46:49.831Z,3.90
2022-08-16T19:49:17.291Z,2.60
2022-08-16T19:51:45.714Z,2.90
2022-08-16T19:54:13.256Z,2.33
2022-08-16T19:56:40.477Z,3.45
2022-08-16T19:59:23.103Z,3.63
2022-08-16T20:01:55.219Z,4.07
2022-08-16T20:04:23.887Z,3.20
2022-08-16T20:06:54.484Z,2.60
2022-08-16T20:09:22.515Z,2.63
2022-08-16T20:11:52.341Z,2.78
2022-08-16T20:14:25.349Z,2.80
2022-08-16T20:16:58.763Z,2.50
2022-08-16T20:19:28.279Z,2.53
2022-08-16T20:21:56.877Z,2.67
2022-08-16T20:24:35.298Z,2.40
2022-08-16T20:27:06.199Z,2.47
2022-08-16T20:29:33.794Z,2.55
2022-08-16T20:32:00.978Z,3.00
2022-08-16T20:34:28.069Z,2.97
2022-08-16T20:36:55.186Z,3.35
2022-08-16T20:39:24.191Z,3.35
2022-08-16T20:41:51.579Z,3.53
2022-08-16T20:44:22.858Z,2.88
2022-08-16T20:46:52.745Z,3.22
2022-08-16T20:49:19.856Z,3.38
2022-08-16T20:51:50.538Z,3.70
2022-08-16T20:54:20.855Z,3.10
2022-08-16T20:56:48.093Z,2.72
2022-08-16T20:59:15.644Z,3.23
2022-08-16T21:01:49.594Z,2.92
2022-08-16T21:04:19.951Z,3.30
2022-08-16T21:06:53.500Z,2.75
2022-08-16T21:09:24.354Z,2.53
2022-08-16T21:11:56.148Z,3.50
2022-08-16T21:14:24.013Z,2.95
2022-08-16T21:16:51.384Z,2.53
2022-08-16T21:19:19.771Z,2.90
2022-08-16T21:21:46.898Z,3.15
2022-08-16T21:24:14.251Z,2.75
2022-08-16T21:26:41.383Z,3.55
2022-08-16T21:29:17.073Z,3.30
2022-08-16T21:31:44.330Z,3.40
2022-08-16T21:34:11.431Z,3.10
2022-08-16T21:36:38.529Z,3.40
2022-08-16T21:39:06.258Z,3.35
2022-08-16T21:41:35.377Z,3.17
2022-08-16T21:46:29.457Z,3.15
2022-08-16T21:48:56.593Z,3.45
2022-08-16T21:51:23.692Z,3.17
2022-08-16T21:53:50.840Z,3.45
2022-08-16T21:56:18.218Z,3.45
2022-08-16T21:58:46.437Z,3.70
2022-08-16T22:01:20.971Z,3.03
2022-08-16T22:03:48.209Z,3.10
2022-08-16T22:06:28.951Z,3.33
2022-08-16T22:08:56.182Z,2.80
2022-08-16T22:11:24.565Z,3.30
2022-08-16T22:13:58.823Z,3.10
2022-08-16T22:16:33.824Z,2.72
2022-08-16T22:19:02.524Z,2.47
2022-08-16T22:21:31.072Z,2.42
2022-08-16T22:23:59.037Z,2.85
2022-08-16T22:26:30.162Z,2.33
2022-08-16T22:29:05.113Z,2.28
2022-08-16T22:31:32.899Z,2.80
2022-08-16T22:34:01.797Z,2.92
2022-08-16T22:36:31.570Z,2.00
2022-08-16T22:39:01.192Z,2.90
2022-08-16T22:41:31.843Z,2.47
2022-08-16T22:44:00.904Z,2.92
2022-08-16T22:48:55.267Z,3.47
2022-08-16T22:51:24.821Z,3.47
2022-08-16T22:53:52.709Z,3.08
2022-08-16T22:56:20.978Z,3.10
2022-08-16T22:58:49.122Z,2.70
2022-08-16T23:01:18.236Z,3.33
2022-08-16T23:03:45.668Z,2.50
2022-08-16T23:06:13.698Z,2.50
2022-08-16T23:08:41.958Z,2.60
2022-08-16T23:11:17.959Z,2.43
2022-08-16T23:13:52.956Z,2.75
2022-08-16T23:16:33.009Z,2.17
2022-08-16T23:19:12.493Z,2.35
2022-08-16T23:21:43.720Z,2.10
2022-08-16T23:24:11.737Z,2.72
2022-08-16T23:26:45.642Z,2.10
2022-08-16T23:29:24.059Z,2.78
2022-08-16T23:31:56.719Z,2.80
2022-08-16T23:34:24.521Z,2.78
2022-08-16T23:36:51.701Z,2.40
2022-08-16T23:39:18.871Z,3.00
2022-08-16T23:41:46.039Z,3.20
2022-08-16T23:44:57.029Z,2.67
2022-08-16T23:47:00.299Z,2.60
2022-08-16T23:49:59.556Z,2.67
2022-08-16T23:52:14.893Z,2.65
2022-08-16T23:54:41.999Z,2.45
2022-08-16T23:57:09.111Z,3.35
2022-08-16T23:59:52.137Z,3.00
